sensor_id;sensor_type;location;lat;lon;timestamp;P1;durP1;ratioP1;P2;durP2;ratioP2
70148;SDS011;57514;52.164;5.282;2023-06-05T00:00:01;13.55;;;4.60;;
70148;SDS011;57514;52.164;5.282;2023-06-05T00:02:37;11.30;;;4.47;;
70148;SDS011;57514;52.164;5.282;2023-06-05T00:05:04;10.55;;;4.60;;
70148;SDS011;57514;52.164;5.282;2023-06-05T00:07:35;10.27;;;4.30;;
70148;SDS011;57514;52.164;5.282;2023-06-05T00:10:05;11.55;;;4.97;;
70148;SDS011;57514;52.164;5.282;2023-06-05T00:12:32;10.48;;;4.60;;
70148;SDS011;57514;52.164;5.282;2023-06-05T00:15:00;10.13;;;4.60;;
70148;SDS011;57514;52.164;5.282;2023-06-05T00:17:28;10.38;;;4.80;;
70148;SDS011;57514;52.164;5.282;2023-06-05T00:19:57;11.00;;;4.80;;
70148;SDS011;57514;52.164;5.282;2023-06-05T00:22:28;13.63;;;5.35;;
70148;SDS011;57514;52.164;5.282;2023-06-05T00:24:57;12.50;;;4.60;;
70148;SDS011;57514;52.164;5.282;2023-06-05T00:27:24;11.45;;;5.47;;
70148;SDS011;57514;52.164;5.282;2023-06-05T00:29:52;11.95;;;4.97;;
70148;SDS011;57514;52.164;5.282;2023-06-05T00:32:19;11.00;;;5.20;;
70148;SDS011;57514;52.164;5.282;2023-06-05T00:34:47;13.32;;;5.05;;
70148;SDS011;57514;52.164;5.282;2023-06-05T00:37:16;13.85;;;4.50;;
70148;SDS011;57514;52.164;5.282;2023-06-05T00:39:43;16.40;;;5.03;;
70148;SDS011;57514;52.164;5.282;2023-06-05T00:42:12;11.40;;;5.45;;
70148;SDS011;57514;52.164;5.282;2023-06-05T00:44:39;12.68;;;4.60;;
70148;SDS011;57514;52.164;5.282;2023-06-05T00:47:07;13.00;;;4.97;;
70148;SDS011;57514;52.164;5.282;2023-06-05T00:49:34;12.30;;;5.05;;
70148;SDS011;57514;52.164;5.282;2023-06-05T00:52:02;10.73;;;4.82;;
70148;SDS011;57514;52.164;5.282;2023-06-05T00:54:29;11.38;;;4.57;;
70148;SDS011;57514;52.164;5.282;2023-06-05T00:56:56;11.35;;;4.88;;
70148;SDS011;57514;52.164;5.282;2023-06-05T00:59:24;12.68;;;5.13;;
70148;SDS011;57514;52.164;5.282;2023-06-05T01:01:52;13.27;;;5.18;;
70148;SDS011;57514;52.164;5.282;2023-06-05T01:04:20;11.60;;;5.25;;
70148;SDS011;57514;52.164;5.282;2023-06-05T01:06:49;13.20;;;5.22;;
70148;SDS011;57514;52.164;5.282;2023-06-05T01:09:17;10.95;;;4.55;;
70148;SDS011;57514;52.164;5.282;2023-06-05T01:16:43;11.73;;;5.47;;
70148;SDS011;57514;52.164;5.282;2023-06-05T01:19:15;12.18;;;5.00;;
70148;SDS011;57514;52.164;5.282;2023-06-05T01:21:42;11.48;;;4.95;;
70148;SDS011;57514;52.164;5.282;2023-06-05T01:24:10;11.18;;;4.95;;
70148;SDS011;57514;52.164;5.282;2023-06-05T01:26:43;11.02;;;5.00;;
70148;SDS011;57514;52.164;5.282;2023-06-05T01:29:21;10.98;;;5.28;;
70148;SDS011;57514;52.164;5.282;2023-06-05T01:31:50;10.60;;;4.85;;
70148;SDS011;57514;52.164;5.282;2023-06-05T01:34:20;15.20;;;5.45;;
70148;SDS011;57514;52.164;5.282;2023-06-05T01:36:48;11.70;;;5.20;;
70148;SDS011;57514;52.164;5.282;2023-06-05T01:39:17;12.25;;;5.25;;
70148;SDS011;57514;52.164;5.282;2023-06-05T01:41:44;12.73;;;5.22;;
70148;SDS011;57514;52.164;5.282;2023-06-05T01:44:13;11.48;;;5.43;;
70148;SDS011;57514;52.164;5.282;2023-06-05T01:46:42;16.05;;;5.68;;
70148;SDS011;57514;52.164;5.282;2023-06-05T01:49:09;14.48;;;4.82;;
70148;SDS011;57514;52.164;5.282;2023-06-05T01:51:37;12.80;;;5.55;;
70148;SDS011;57514;52.164;5.282;2023-06-05T01:54:04;13.35;;;5.82;;
70148;SDS011;57514;52.164;5.282;2023-06-05T01:56:32;13.63;;;5.78;;
70148;SDS011;57514;52.164;5.282;2023-06-05T01:59:02;14.05;;;5.72;;
70148;SDS011;57514;52.164;5.282;2023-06-05T02:01:35;12.02;;;5.43;;
70148;SDS011;57514;52.164;5.282;2023-06-05T02:04:02;13.48;;;5.15;;
70148;SDS011;57514;52.164;5.282;2023-06-05T02:06:33;13.32;;;5.47;;
70148;SDS011;57514;52.164;5.282;2023-06-05T02:09:11;15.15;;;5.90;;
70148;SDS011;57514;52.164;5.282;2023-06-05T02:11:42;13.57;;;5.55;;
70148;SDS011;57514;52.164;5.282;2023-06-05T02:14:12;13.10;;;5.40;;
70148;SDS011;57514;52.164;5.282;2023-06-05T02:16:40;14.82;;;5.57;;
70148;SDS011;57514;52.164;5.282;2023-06-05T02:19:07;13.57;;;5.40;;
70148;SDS011;57514;52.164;5.282;2023-06-05T02:21:35;12.88;;;5.47;;
70148;SDS011;57514;52.164;5.282;2023-06-05T02:24:03;13.27;;;5.72;;
70148;SDS011;57514;52.164;5.282;2023-06-05T02:26:31;15.85;;;5.47;;
70148;SDS011;57514;52.164;5.282;2023-06-05T02:28:58;14.38;;;6.00;;
70148;SDS011;57514;52.164;5.282;2023-06-05T02:31:25;13.52;;;6.28;;
70148;SDS011;57514;52.164;5.282;2023-06-05T02:36:23;12.80;;;5.18;;
70148;SDS011;57514;52.164;5.282;2023-06-05T02:38:51;14.00;;;6.13;;
70148;SDS011;57514;52.164;5.282;2023-06-05T02:41:19;12.48;;;5.00;;
70148;SDS011;57514;52.164;5.282;2023-06-05T02:43:51;16.08;;;6.38;;
70148;SDS011;57514;52.164;5.282;2023-06-05T02:46:18;16.48;;;6.10;;
70148;SDS011;57514;52.164;5.282;2023-06-05T02:48:47;12.57;;;5.05;;
70148;SDS011;57514;52.164;5.282;2023-06-05T02:51:16;12.85;;;5.85;;
70148;SDS011;57514;52.164;5.282;2023-06-05T02:53:45;15.38;;;6.25;;
70148;SDS011;57514;52.164;5.282;2023-06-05T02:56:17;13.43;;;6.45;;
70148;SDS011;57514;52.164;5.282;2023-06-05T02:58:45;18.63;;;5.97;;
70148;SDS011;57514;52.164;5.282;2023-06-05T03:01:13;14.77;;;6.18;;
70148;SDS011;57514;52.164;5.282;2023-06-05T03:03:43;13.32;;;6.22;;
70148;SDS011;57514;52.164;5.282;2023-06-05T03:06:11;14.35;;;6.40;;
70148;SDS011;57514;52.164;5.282;2023-06-05T03:08:44;14.35;;;5.85;;
70148;SDS011;57514;52.164;5.282;2023-06-05T03:11:16;13.57;;;5.53;;
70148;SDS011;57514;52.164;5.282;2023-06-05T03:13:43;17.55;;;6.28;;
70148;SDS011;57514;52.164;5.282;2023-06-05T03:16:11;15.40;;;6.28;;
70148;SDS011;57514;52.164;5.282;2023-06-05T03:18:47;13.35;;;5.90;;
70148;SDS011;57514;52.164;5.282;2023-06-05T03:21:14;14.20;;;5.75;;
70148;SDS011;57514;52.164;5.282;2023-06-05T03:23:42;15.15;;;6.35;;
70148;SDS011;57514;52.164;5.282;2023-06-05T03:26:12;13.48;;;6.03;;
70148;SDS011;57514;52.164;5.282;2023-06-05T03:28:40;14.95;;;6.30;;
70148;SDS011;57514;52.164;5.282;2023-06-05T03:31:09;14.98;;;5.97;;
70148;SDS011;57514;52.164;5.282;2023-06-05T03:33:46;16.40;;;6.28;;
70148;SDS011;57514;52.164;5.282;2023-06-05T03:36:14;14.60;;;5.78;;
70148;SDS011;57514;52.164;5.282;2023-06-05T03:38:52;16.33;;;6.05;;
70148;SDS011;57514;52.164;5.282;2023-06-05T03:41:19;13.70;;;5.82;;
70148;SDS011;57514;52.164;5.282;2023-06-05T03:43:47;15.55;;;5.95;;
70148;SDS011;57514;52.164;5.282;2023-06-05T03:46:16;15.55;;;6.20;;
70148;SDS011;57514;52.164;5.282;2023-06-05T03:48:49;17.13;;;5.97;;
70148;SDS011;57514;52.164;5.282;2023-06-05T03:51:22;14.20;;;6.05;;
70148;SDS011;57514;52.164;5.282;2023-06-05T03:53:49;15.52;;;6.28;;
70148;SDS011;57514;52.164;5.282;2023-06-05T03:56:21;12.82;;;5.35;;
70148;SDS011;57514;52.164;5.282;2023-06-05T03:58:49;13.93;;;6.32;;
70148;SDS011;57514;52.164;5.282;2023-06-05T04:01:17;16.02;;;6.30;;
70148;SDS011;57514;52.164;5.282;2023-06-05T04:03:44;16.58;;;6.05;;
70148;SDS011;57514;52.164;5.282;2023-06-05T04:06:12;13.05;;;6.13;;
70148;SDS011;57514;52.164;5.282;2023-06-05T04:08:39;13.60;;;6.10;;
70148;SDS011;57514;52.164;5.282;2023-06-05T04:11:06;13.65;;;5.35;;
70148;SDS011;57514;52.164;5.282;2023-06-05T04:13:35;13.25;;;5.82;;
70148;SDS011;57514;52.164;5.282;2023-06-05T04:16:03;13.00;;;5.80;;
70148;SDS011;57514;52.164;5.282;2023-06-05T04:18:31;13.38;;;6.32;;
70148;SDS011;57514;52.164;5.282;2023-06-05T04:20:59;14.10;;;5.40;;
70148;SDS011;57514;52.164;5.282;2023-06-05T04:23:28;13.55;;;5.90;;
70148;SDS011;57514;52.164;5.282;2023-06-05T04:25:56;17.08;;;6.25;;
70148;SDS011;57514;52.164;5.282;2023-06-05T04:28:23;12.55;;;5.68;;
70148;SDS011;57514;52.164;5.282;2023-06-05T04:30:52;13.82;;;5.30;;
70148;SDS011;57514;52.164;5.282;2023-06-05T04:33:22;14.68;;;5.63;;
70148;SDS011;57514;52.164;5.282;2023-06-05T04:35:49;14.07;;;5.40;;
70148;SDS011;57514;52.164;5.282;2023-06-05T04:38:19;15.02;;;5.60;;
70148;SDS011;57514;52.164;5.282;2023-06-05T04:40:48;13.75;;;5.72;;
70148;SDS011;57514;52.164;5.282;2023-06-05T04:43:16;15.00;;;5.20;;
70148;SDS011;57514;52.164;5.282;2023-06-05T04:45:44;13.13;;;5.63;;
70148;SDS011;57514;52.164;5.282;2023-06-05T04:48:16;12.55;;;5.43;;
70148;SDS011;57514;52.164;5.282;2023-06-05T04:50:43;15.57;;;5.80;;
70148;SDS011;57514;52.164;5.282;2023-06-05T04:53:11;14.98;;;6.38;;
70148;SDS011;57514;52.164;5.282;2023-06-05T04:55:40;12.10;;;5.70;;
70148;SDS011;57514;52.164;5.282;2023-06-05T04:58:07;13.65;;;5.50;;
70148;SDS011;57514;52.164;5.282;2023-06-05T05:00:35;12.98;;;5.53;;
70148;SDS011;57514;52.164;5.282;2023-06-05T05:03:04;13.35;;;5.82;;
70148;SDS011;57514;52.164;5.282;2023-06-05T05:05:32;12.88;;;5.88;;
70148;SDS011;57514;52.164;5.282;2023-06-05T05:08:02;12.82;;;5.60;;
70148;SDS011;57514;52.164;5.282;2023-06-05T05:10:31;13.43;;;5.55;;
70148;SDS011;57514;52.164;5.282;2023-06-05T05:12:59;12.45;;;5.13;;
70148;SDS011;57514;52.164;5.282;2023-06-05T05:17:56;12.70;;;5.65;;
70148;SDS011;57514;52.164;5.282;2023-06-05T05:20:24;12.07;;;5.28;;
70148;SDS011;57514;52.164;5.282;2023-06-05T05:22:52;11.98;;;5.30;;
70148;SDS011;57514;52.164;5.282;2023-06-05T05:25:19;12.70;;;5.53;;
70148;SDS011;57514;52.164;5.282;2023-06-05T05:27:47;11.85;;;5.00;;
70148;SDS011;57514;52.164;5.282;2023-06-05T05:30:15;11.82;;;5.28;;
70148;SDS011;57514;52.164;5.282;2023-06-05T05:32:41;11.30;;;5.28;;
70148;SDS011;57514;52.164;5.282;2023-06-05T05:35:11;12.00;;;5.28;;
70148;SDS011;57514;52.164;5.282;2023-06-05T05:37:38;12.27;;;5.18;;
70148;SDS011;57514;52.164;5.282;2023-06-05T05:40:06;13.35;;;5.28;;
70148;SDS011;57514;52.164;5.282;2023-06-05T05:42:34;11.90;;;5.78;;
70148;SDS011;57514;52.164;5.282;2023-06-05T05:45:01;12.93;;;5.75;;
70148;SDS011;57514;52.164;5.282;2023-06-05T05:47:28;13.23;;;5.53;;
70148;SDS011;57514;52.164;5.282;2023-06-05T05:49:56;14.65;;;5.85;;
70148;SDS011;57514;52.164;5.282;2023-06-05T05:52:23;14.55;;;6.43;;
70148;SDS011;57514;52.164;5.282;2023-06-05T05:54:50;11.98;;;6.03;;
70148;SDS011;57514;52.164;5.282;2023-06-05T05:57:21;13.48;;;6.18;;
70148;SDS011;57514;52.164;5.282;2023-06-05T05:59:48;13.63;;;5.53;;
70148;SDS011;57514;52.164;5.282;2023-06-05T06:02:40;18.15;;;5.95;;
70148;SDS011;57514;52.164;5.282;2023-06-05T06:05:08;13.15;;;6.18;;
70148;SDS011;57514;52.164;5.282;2023-06-05T06:07:36;14.15;;;6.43;;
70148;SDS011;57514;52.164;5.282;2023-06-05T06:10:03;14.77;;;6.85;;
70148;SDS011;57514;52.164;5.282;2023-06-05T06:12:30;15.05;;;6.05;;
70148;SDS011;57514;52.164;5.282;2023-06-05T06:14:58;18.13;;;6.78;;
70148;SDS011;57514;52.164;5.282;2023-06-05T06:17:25;13.43;;;6.60;;
70148;SDS011;57514;52.164;5.282;2023-06-05T06:19:54;14.88;;;6.47;;
70148;SDS011;57514;52.164;5.282;2023-06-05T06:22:22;12.40;;;6.13;;
70148;SDS011;57514;52.164;5.282;2023-06-05T06:24:49;13.73;;;6.32;;
70148;SDS011;57514;52.164;5.282;2023-06-05T06:27:18;14.02;;;6.32;;
70148;SDS011;57514;52.164;5.282;2023-06-05T06:30:00;15.60;;;5.80;;
70148;SDS011;57514;52.164;5.282;2023-06-05T06:32:28;14.40;;;6.25;;
70148;SDS011;57514;52.164;5.282;2023-06-05T06:34:56;12.57;;;6.75;;
70148;SDS011;57514;52.164;5.282;2023-06-05T06:37:23;13.35;;;6.28;;
70148;SDS011;57514;52.164;5.282;2023-06-05T06:39:57;13.75;;;6.65;;
70148;SDS011;57514;52.164;5.282;2023-06-05T06:42:25;15.52;;;6.72;;
70148;SDS011;57514;52.164;5.282;2023-06-05T06:45:05;13.10;;;6.28;;
70148;SDS011;57514;52.164;5.282;2023-06-05T06:47:33;15.45;;;6.82;;
70148;SDS011;57514;52.164;5.282;2023-06-05T06:50:00;13.73;;;6.40;;
70148;SDS011;57514;52.164;5.282;2023-06-05T06:52:27;14.35;;;5.88;;
70148;SDS011;57514;52.164;5.282;2023-06-05T06:54:55;14.63;;;6.85;;
70148;SDS011;57514;52.164;5.282;2023-06-05T06:57:24;13.13;;;6.40;;
70148;SDS011;57514;52.164;5.282;2023-06-05T06:59:51;12.75;;;6.05;;
70148;SDS011;57514;52.164;5.282;2023-06-05T07:02:20;12.57;;;5.63;;
70148;SDS011;57514;52.164;5.282;2023-06-05T07:07:17;13.02;;;5.70;;
70148;SDS011;57514;52.164;5.282;2023-06-05T07:09:44;12.73;;;6.60;;
70148;SDS011;57514;52.164;5.282;2023-06-05T07:12:13;12.60;;;6.53;;
70148;SDS011;57514;52.164;5.282;2023-06-05T07:14:41;13.27;;;6.97;;
70148;SDS011;57514;52.164;5.282;2023-06-05T07:17:08;11.13;;;5.85;;
70148;SDS011;57514;52.164;5.282;2023-06-05T07:19:35;10.88;;;5.80;;
70148;SDS011;57514;52.164;5.282;2023-06-05T07:22:03;12.20;;;6.07;;
70148;SDS011;57514;52.164;5.282;2023-06-05T07:24:32;12.63;;;6.32;;
70148;SDS011;57514;52.164;5.282;2023-06-05T07:27:02;12.52;;;6.55;;
70148;SDS011;57514;52.164;5.282;2023-06-05T07:29:30;12.48;;;5.97;;
70148;SDS011;57514;52.164;5.282;2023-06-05T07:31:58;12.20;;;6.03;;
70148;SDS011;57514;52.164;5.282;2023-06-05T07:34:26;11.82;;;6.32;;
70148;SDS011;57514;52.164;5.282;2023-06-05T07:36:53;11.55;;;5.90;;
70148;SDS011;57514;52.164;5.282;2023-06-05T07:39:24;11.82;;;5.40;;
70148;SDS011;57514;52.164;5.282;2023-06-05T07:41:51;10.82;;;5.32;;
70148;SDS011;57514;52.164;5.282;2023-06-05T07:44:20;11.50;;;6.13;;
70148;SDS011;57514;52.164;5.282;2023-06-05T07:50:01;11.18;;;5.80;;
70148;SDS011;57514;52.164;5.282;2023-06-05T07:52:30;11.35;;;6.00;;
70148;SDS011;57514;52.164;5.282;2023-06-05T07:55:00;11.48;;;6.30;;
70148;SDS011;57514;52.164;5.282;2023-06-05T07:57:28;9.38;;;5.32;;
70148;SDS011;57514;52.164;5.282;2023-06-05T07:59:55;11.98;;;5.30;;
70148;SDS011;57514;52.164;5.282;2023-06-05T08:02:25;10.43;;;5.55;;
70148;SDS011;57514;52.164;5.282;2023-06-05T08:04:52;10.90;;;6.03;;
70148;SDS011;57514;52.164;5.282;2023-06-05T08:07:20;13.73;;;5.85;;
70148;SDS011;57514;52.164;5.282;2023-06-05T08:09:48;10.15;;;5.68;;
70148;SDS011;57514;52.164;5.282;2023-06-05T08:12:15;10.38;;;5.70;;
70148;SDS011;57514;52.164;5.282;2023-06-05T08:14:42;9.90;;;5.25;;
70148;SDS011;57514;52.164;5.282;2023-06-05T08:17:09;9.90;;;5.38;;
70148;SDS011;57514;52.164;5.282;2023-06-05T08:19:37;10.02;;;5.32;;
70148;SDS011;57514;52.164;5.282;2023-06-05T08:22:05;11.57;;;5.47;;
70148;SDS011;57514;52.164;5.282;2023-06-05T08:24:32;9.35;;;5.18;;
70148;SDS011;57514;52.164;5.282;2023-06-05T08:27:20;10.60;;;5.88;;
70148;SDS011;57514;52.164;5.282;2023-06-05T08:29:47;11.45;;;6.28;;
70148;SDS011;57514;52.164;5.282;2023-06-05T08:32:15;11.90;;;5.95;;
70148;SDS011;57514;52.164;5.282;2023-06-05T08:34:45;10.43;;;6.00;;
70148;SDS011;57514;52.164;5.282;2023-06-05T08:37:12;11.07;;;6.20;;
70148;SDS011;57514;52.164;5.282;2023-06-05T08:39:40;10.68;;;5.53;;
70148;SDS011;57514;52.164;5.282;2023-06-05T08:42:07;10.27;;;5.63;;
70148;SDS011;57514;52.164;5.282;2023-06-05T08:44:40;10.25;;;6.00;;
70148;SDS011;57514;52.164;5.282;2023-06-05T08:47:30;11.30;;;6.03;;
70148;SDS011;57514;52.164;5.282;2023-06-05T08:50:01;9.85;;;5.68;;
70148;SDS011;57514;52.164;5.282;2023-06-05T08:52:30;10.52;;;5.50;;
70148;SDS011;57514;52.164;5.282;2023-06-05T08:55:00;10.00;;;5.28;;
70148;SDS011;57514;52.164;5.282;2023-06-05T08:57:28;10.15;;;5.47;;
70148;SDS011;57514;52.164;5.282;2023-06-05T08:59:55;9.30;;;4.78;;
70148;SDS011;57514;52.164;5.282;2023-06-05T09:02:25;9.15;;;4.90;;
70148;SDS011;57514;52.164;5.282;2023-06-05T09:04:52;8.95;;;4.65;;
70148;SDS011;57514;52.164;5.282;2023-06-05T09:07:19;8.57;;;4.82;;
70148;SDS011;57514;52.164;5.282;2023-06-05T09:09:48;8.70;;;4.63;;
70148;SDS011;57514;52.164;5.282;2023-06-05T09:12:15;9.77;;;4.70;;
70148;SDS011;57514;52.164;5.282;2023-06-05T09:14:43;8.63;;;4.40;;
70148;SDS011;57514;52.164;5.282;2023-06-05T09:17:28;8.68;;;4.65;;
70148;SDS011;57514;52.164;5.282;2023-06-05T09:19:55;8.25;;;4.25;;
70148;SDS011;57514;52.164;5.282;2023-06-05T09:22:31;8.40;;;3.90;;
70148;SDS011;57514;52.164;5.282;2023-06-05T09:24:59;9.68;;;3.80;;
70148;SDS011;57514;52.164;5.282;2023-06-05T09:27:27;9.48;;;3.70;;
70148;SDS011;57514;52.164;5.282;2023-06-05T09:30:00;7.68;;;4.05;;
70148;SDS011;57514;52.164;5.282;2023-06-05T09:32:29;8.00;;;4.32;;
70148;SDS011;57514;52.164;5.282;2023-06-05T09:34:56;8.20;;;3.85;;
70148;SDS011;57514;52.164;5.282;2023-06-05T09:37:33;8.88;;;4.40;;
70148;SDS011;57514;52.164;5.282;2023-06-05T09:40:06;9.48;;;4.43;;
70148;SDS011;57514;52.164;5.282;2023-06-05T09:42:37;9.02;;;4.10;;
70148;SDS011;57514;52.164;5.282;2023-06-05T09:45:04;10.50;;;4.38;;
70148;SDS011;57514;52.164;5.282;2023-06-05T09:47:31;7.10;;;3.70;;
70148;SDS011;57514;52.164;5.282;2023-06-05T09:50:21;8.20;;;4.05;;
70148;SDS011;57514;52.164;5.282;2023-06-05T09:52:54;8.43;;;4.10;;
70148;SDS011;57514;52.164;5.282;2023-06-05T09:55:23;8.15;;;4.00;;
70148;SDS011;57514;52.164;5.282;2023-06-05T09:57:52;7.68;;;3.92;;
70148;SDS011;57514;52.164;5.282;2023-06-05T10:00:20;7.75;;;3.90;;
70148;SDS011;57514;52.164;5.282;2023-06-05T10:02:50;8.23;;;4.07;;
70148;SDS011;57514;52.164;5.282;2023-06-05T10:05:23;8.30;;;4.45;;
70148;SDS011;57514;52.164;5.282;2023-06-05T10:07:52;8.40;;;4.38;;
70148;SDS011;57514;52.164;5.282;2023-06-05T10:10:20;7.38;;;3.92;;
70148;SDS011;57514;52.164;5.282;2023-06-05T10:12:48;9.15;;;4.28;;
70148;SDS011;57514;52.164;5.282;2023-06-05T10:15:15;8.85;;;4.43;;
70148;SDS011;57514;52.164;5.282;2023-06-05T10:17:45;8.70;;;4.50;;
70148;SDS011;57514;52.164;5.282;2023-06-05T10:20:15;8.32;;;4.50;;
70148;SDS011;57514;52.164;5.282;2023-06-05T10:22:50;8.80;;;4.43;;
70148;SDS011;57514;52.164;5.282;2023-06-05T10:25:19;9.07;;;5.22;;
70148;SDS011;57514;52.164;5.282;2023-06-05T10:28:02;10.48;;;4.90;;
70148;SDS011;57514;52.164;5.282;2023-06-05T10:36:18;11.48;;;5.60;;
70148;SDS011;57514;52.164;5.282;2023-06-05T10:39:08;11.40;;;4.90;;
70148;SDS011;57514;52.164;5.282;2023-06-05T10:41:36;10.48;;;5.18;;
70148;SDS011;57514;52.164;5.282;2023-06-05T10:44:07;8.07;;;4.43;;
70148;SDS011;57514;52.164;5.282;2023-06-05T10:46:35;9.15;;;4.85;;
70148;SDS011;57514;52.164;5.282;2023-06-05T10:49:12;8.45;;;4.40;;
70148;SDS011;57514;52.164;5.282;2023-06-05T10:51:51;10.52;;;4.43;;
70148;SDS011;57514;52.164;5.282;2023-06-05T10:59:25;9.93;;;4.93;;
70148;SDS011;57514;52.164;5.282;2023-06-05T11:07:20;8.82;;;4.38;;
70148;SDS011;57514;52.164;5.282;2023-06-05T11:15:03;8.30;;;3.90;;
70148;SDS011;57514;52.164;5.282;2023-06-05T11:17:31;8.95;;;3.78;;
70148;SDS011;57514;52.164;5.282;2023-06-05T11:20:00;7.13;;;3.92;;
70148;SDS011;57514;52.164;5.282;2023-06-05T11:30:25;7.72;;;3.33;;
70148;SDS011;57514;52.164;5.282;2023-06-05T11:33:13;7.47;;;3.90;;
70148;SDS011;57514;52.164;5.282;2023-06-05T11:35:43;8.20;;;4.03;;
70148;SDS011;57514;52.164;5.282;2023-06-05T11:38:12;7.90;;;3.15;;
70148;SDS011;57514;52.164;5.282;2023-06-05T11:40:49;6.68;;;3.45;;
70148;SDS011;57514;52.164;5.282;2023-06-05T11:43:16;6.68;;;3.42;;
70148;SDS011;57514;52.164;5.282;2023-06-05T11:45:50;6.35;;;3.58;;
70148;SDS011;57514;52.164;5.282;2023-06-05T11:48:19;8.52;;;3.60;;
70148;SDS011;57514;52.164;5.282;2023-06-05T11:50:51;8.60;;;4.32;;
70148;SDS011;57514;52.164;5.282;2023-06-05T11:53:18;9.40;;;3.47;;
70148;SDS011;57514;52.164;5.282;2023-06-05T11:56:31;8.52;;;4.00;;
70148;SDS011;57514;52.164;5.282;2023-06-05T11:58:59;6.60;;;3.60;;
70148;SDS011;57514;52.164;5.282;2023-06-05T12:01:26;7.40;;;3.80;;
70148;SDS011;57514;52.164;5.282;2023-06-05T12:04:04;7.13;;;3.67;;
70148;SDS011;57514;52.164;5.282;2023-06-05T12:06:33;7.25;;;3.20;;
70148;SDS011;57514;52.164;5.282;2023-06-05T12:11:40;8.40;;;3.60;;
70148;SDS011;57514;52.164;5.282;2023-06-05T12:14:10;9.00;;;4.32;;
70148;SDS011;57514;52.164;5.282;2023-06-05T12:16:41;6.80;;;3.47;;
70148;SDS011;57514;52.164;5.282;2023-06-05T12:23:30;8.23;;;4.03;;
70148;SDS011;57514;52.164;5.282;2023-06-05T12:26:00;8.23;;;3.47;;
70148;SDS011;57514;52.164;5.282;2023-06-05T12:28:31;10.15;;;3.90;;
70148;SDS011;57514;52.164;5.282;2023-06-05T12:30:59;8.70;;;4.22;;
70148;SDS011;57514;52.164;5.282;2023-06-05T12:33:45;9.02;;;3.97;;
70148;SDS011;57514;52.164;5.282;2023-06-05T12:36:13;8.82;;;4.15;;
70148;SDS011;57514;52.164;5.282;2023-06-05T12:38:55;8.80;;;3.90;;
70148;SDS011;57514;52.164;5.282;2023-06-05T12:41:22;8.35;;;3.88;;
70148;SDS011;57514;52.164;5.282;2023-06-05T12:43:58;8.57;;;4.13;;
70148;SDS011;57514;52.164;5.282;2023-06-05T12:46:27;9.55;;;4.10;;
70148;SDS011;57514;52.164;5.282;2023-06-05T12:48:54;9.35;;;4.13;;
70148;SDS011;57514;52.164;5.282;2023-06-05T12:51:21;7.80;;;3.70;;
70148;SDS011;57514;52.164;5.282;2023-06-05T12:53:48;10.07;;;4.20;;
70148;SDS011;57514;52.164;5.282;2023-06-05T12:56:22;9.02;;;3.92;;
70148;SDS011;57514;52.164;5.282;2023-06-05T12:58:53;8.13;;;4.30;;
70148;SDS011;57514;52.164;5.282;2023-06-05T13:04:16;8.07;;;3.67;;
70148;SDS011;57514;52.164;5.282;2023-06-05T13:06:43;9.20;;;4.03;;
70148;SDS011;57514;52.164;5.282;2023-06-05T13:09:10;8.05;;;3.72;;
70148;SDS011;57514;52.164;5.282;2023-06-05T13:11:37;9.85;;;4.18;;
70148;SDS011;57514;52.164;5.282;2023-06-05T13:14:07;8.05;;;3.83;;
70148;SDS011;57514;52.164;5.282;2023-06-05T13:16:34;7.88;;;3.90;;
70148;SDS011;57514;52.164;5.282;2023-06-05T13:19:04;7.28;;;3.47;;
70148;SDS011;57514;52.164;5.282;2023-06-05T13:21:31;9.90;;;4.35;;
70148;SDS011;57514;52.164;5.282;2023-06-05T13:23:58;7.70;;;3.40;;
70148;SDS011;57514;52.164;5.282;2023-06-05T13:26:25;8.20;;;3.95;;
70148;SDS011;57514;52.164;5.282;2023-06-05T13:28:52;8.00;;;3.72;;
70148;SDS011;57514;52.164;5.282;2023-06-05T13:31:19;7.43;;;3.88;;
70148;SDS011;57514;52.164;5.282;2023-06-05T13:33:47;8.95;;;4.13;;
70148;SDS011;57514;52.164;5.282;2023-06-05T13:36:17;9.32;;;3.90;;
70148;SDS011;57514;52.164;5.282;2023-06-05T13:38:47;8.90;;;3.80;;
70148;SDS011;57514;52.164;5.282;2023-06-05T13:41:24;8.05;;;3.83;;
70148;SDS011;57514;52.164;5.282;2023-06-05T13:44:15;9.18;;;4.43;;
70148;SDS011;57514;52.164;5.282;2023-06-05T13:49:47;8.80;;;3.85;;
70148;SDS011;57514;52.164;5.282;2023-06-05T13:55:49;8.35;;;3.83;;
70148;SDS011;57514;52.164;5.282;2023-06-05T13:58:16;7.97;;;4.15;;
70148;SDS011;57514;52.164;5.282;2023-06-05T14:00:47;9.70;;;4.15;;
70148;SDS011;57514;52.164;5.282;2023-06-05T14:03:20;8.52;;;4.38;;
70148;SDS011;57514;52.164;5.282;2023-06-05T14:05:48;9.30;;;4.03;;
70148;SDS011;57514;52.164;5.282;2023-06-05T14:08:15;9.23;;;3.63;;
70148;SDS011;57514;52.164;5.282;2023-06-05T14:10:43;7.70;;;3.47;;
70148;SDS011;57514;52.164;5.282;2023-06-05T14:13:17;7.82;;;3.67;;
70148;SDS011;57514;52.164;5.282;2023-06-05T14:15:52;8.02;;;3.75;;
70148;SDS011;57514;52.164;5.282;2023-06-05T14:18:31;8.07;;;4.00;;
70148;SDS011;57514;52.164;5.282;2023-06-05T14:21:04;8.98;;;3.72;;
70148;SDS011;57514;52.164;5.282;2023-06-05T14:23:35;9.98;;;3.85;;
70148;SDS011;57514;52.164;5.282;2023-06-05T14:26:04;9.38;;;4.47;;
70148;SDS011;57514;52.164;5.282;2023-06-05T14:28:31;9.88;;;3.97;;
70148;SDS011;57514;52.164;5.282;2023-06-05T14:30:58;9.98;;;4.03;;
70148;SDS011;57514;52.164;5.282;2023-06-05T14:36:27;8.73;;;4.30;;
70148;SDS011;57514;52.164;5.282;2023-06-05T14:38:55;10.65;;;3.80;;
70148;SDS011;57514;52.164;5.282;2023-06-05T14:41:22;12.02;;;4.03;;
70148;SDS011;57514;52.164;5.282;2023-06-05T14:47:17;8.82;;;3.67;;
70148;SDS011;57514;52.164;5.282;2023-06-05T14:50:16;10.02;;;4.15;;
70148;SDS011;57514;52.164;5.282;2023-06-05T14:52:46;9.82;;;4.10;;
70148;SDS011;57514;52.164;5.282;2023-06-05T14:55:22;8.55;;;3.05;;
70148;SDS011;57514;52.164;5.282;2023-06-05T14:57:49;11.30;;;4.00;;
70148;SDS011;57514;52.164;5.282;2023-06-05T15:00:21;10.40;;;4.40;;
70148;SDS011;57514;52.164;5.282;2023-06-05T15:02:48;9.70;;;4.40;;
70148;SDS011;57514;52.164;5.282;2023-06-05T15:05:24;9.32;;;3.80;;
70148;SDS011;57514;52.164;5.282;2023-06-05T15:07:51;8.93;;;4.35;;
70148;SDS011;57514;52.164;5.282;2023-06-05T15:10:46;10.15;;;3.88;;
70148;SDS011;57514;52.164;5.282;2023-06-05T15:13:13;10.80;;;4.53;;
70148;SDS011;57514;52.164;5.282;2023-06-05T15:15:41;9.48;;;4.15;;
70148;SDS011;57514;52.164;5.282;2023-06-05T15:18:08;9.35;;;4.30;;
70148;SDS011;57514;52.164;5.282;2023-06-05T15:20:35;10.55;;;4.32;;
70148;SDS011;57514;52.164;5.282;2023-06-05T15:23:03;12.27;;;3.70;;
70148;SDS011;57514;52.164;5.282;2023-06-05T15:25:42;9.88;;;4.03;;
70148;SDS011;57514;52.164;5.282;2023-06-05T15:28:09;10.00;;;4.20;;
70148;SDS011;57514;52.164;5.282;2023-06-05T15:30:38;9.25;;;3.90;;
70148;SDS011;57514;52.164;5.282;2023-06-05T15:33:05;10.50;;;4.40;;
70148;SDS011;57514;52.164;5.282;2023-06-05T15:35:32;10.27;;;4.30;;
70148;SDS011;57514;52.164;5.282;2023-06-05T15:37:59;11.23;;;4.85;;
70148;SDS011;57514;52.164;5.282;2023-06-05T15:40:28;11.25;;;4.40;;
70148;SDS011;57514;52.164;5.282;2023-06-05T15:43:09;9.95;;;3.88;;
70148;SDS011;57514;52.164;5.282;2023-06-05T15:45:39;10.43;;;4.20;;
70148;SDS011;57514;52.164;5.282;2023-06-05T15:48:09;9.90;;;4.10;;
70148;SDS011;57514;52.164;5.282;2023-06-05T15:50:39;10.63;;;4.35;;
70148;SDS011;57514;52.164;5.282;2023-06-05T15:53:06;11.85;;;4.38;;
70148;SDS011;57514;52.164;5.282;2023-06-05T15:55:36;10.43;;;4.28;;
70148;SDS011;57514;52.164;5.282;2023-06-05T15:58:06;11.07;;;4.55;;
70148;SDS011;57514;52.164;5.282;2023-06-05T16:00:35;9.73;;;3.75;;